Time;durP1;ratioP1;P1;durP2;ratioP2;P2;SDS_P1;SDS_P2;PMS_P1;PMS_P2;Temp;Humidity;BMP_temperature;BMP_pressure;BME280_temperature;BME280_humidity;BME280_pressure;Samples;Min_cycle;Max_cycle;Signal;HPM_P1;HPM_P2
2023/01/24 00:00:40;;;;;;;11.20;8.25;;;;;;;6.51;100.00;102909.50;5047305;28;20514;-44
2023/01/24 00:03:11;;;;;;;12.43;9.00;;;;;;;6.50;100.00;102907.03;5048292;28;20606;-43
2023/01/24 00:05:39;;;;;;;11.65;7.70;;;;;;;6.47;100.00;102913.91;5048314;28;20491;-45
2023/01/24 00:08:06;;;;;;;12.48;8.23;;;;;;;6.38;100.00;102909.97;5050790;28;20044;-44
2023/01/24 00:10:33;;;;;;;14.82;7.95;;;;;;;6.37;100.00;102919.34;5048101;28;20111;-45
2023/01/24 00:13:00;;;;;;;12.25;8.02;;;;;;;6.39;100.00;102917.16;5048280;28;20045;-46
2023/01/24 00:15:26;;;;;;;9.85;7.15;;;;;;;6.39;100.00;102922.66;5043580;28;20044;-44
2023/01/24 00:17:53;;;;;;;9.00;7.25;;;;;;;6.40;100.00;102917.97;5045630;28;20538;-47
2023/01/24 00:20:21;;;;;;;10.70;7.20;;;;;;;6.44;100.00;102925.44;5036440;28;20080;-44
2023/01/24 00:22:47;;;;;;;10.68;7.57;;;;;;;6.43;100.00;102918.28;5047870;28;20091;-43
2023/01/24 00:25:14;;;;;;;11.25;7.15;;;;;;;6.43;100.00;102915.53;5047832;28;20098;-43
2023/01/24 00:27:41;;;;;;;9.98;6.57;;;;;;;6.40;100.00;102924.31;5046640;28;20402;-46
2023/01/24 00:30:08;;;;;;;11.35;6.75;;;;;;;6.41;100.00;102919.63;5047499;28;20037;-44
2023/01/24 00:32:35;;;;;;;8.82;5.53;;;;;;;6.38;100.00;102920.19;5047569;28;20091;-43
2023/01/24 00:35:02;;;;;;;7.25;5.25;;;;;;;6.34;100.00;102921.78;5047945;28;20056;-43
2023/01/24 00:37:28;;;;;;;8.77;4.90;;;;;;;6.35;100.00;102927.03;5055625;28;20079;-43
2023/01/24 00:39:55;;;;;;;6.93;4.63;;;;;;;6.33;100.00;102928.41;5050094;28;20076;-44
2023/01/24 00:42:22;;;;;;;6.57;4.85;;;;;;;6.36;100.00;102934.19;5047619;28;20045;-43
2023/01/24 00:44:48;;;;;;;6.45;5.32;;;;;;;6.40;100.00;102929.81;5047450;28;20495;-45
2023/01/24 00:47:15;;;;;;;5.30;4.18;;;;;;;6.45;100.00;102935.34;5047163;28;20487;-44
2023/01/24 00:49:42;;;;;;;6.13;4.47;;;;;;;6.48;100.00;102926.56;5047283;28;20487;-43
2023/01/24 00:52:08;;;;;;;6.65;5.05;;;;;;;6.49;100.00;102932.88;5047161;28;20052;-43
2023/01/24 00:54:35;;;;;;;8.05;5.05;;;;;;;6.51;100.00;102936.22;5047224;28;20462;-44
2023/01/24 00:57:02;;;;;;;4.65;3.88;;;;;;;6.54;100.00;102939.25;5046744;28;20055;-46
2023/01/24 00:59:29;;;;;;;5.10;3.92;;;;;;;6.57;100.00;102924.97;5046667;28;20509;-50
2023/01/24 01:01:55;;;;;;;4.32;3.13;;;;;;;6.56;100.00;102933.50;5055572;28;20446;-43
2023/01/24 01:04:22;;;;;;;5.20;4.03;;;;;;;6.57;100.00;102930.47;5046529;28;20521;-43
2023/01/24 01:06:49;;;;;;;5.00;3.78;;;;;;;6.56;100.00;102942.59;5047906;28;20080;-43
2023/01/24 01:09:15;;;;;;;6.03;4.65;;;;;;;6.57;100.00;102930.47;5050008;28;20525;-44
2023/01/24 01:11:42;;;;;;;7.45;4.25;;;;;;;6.58;100.00;102934.06;5046720;28;20411;-43
2023/01/24 01:14:09;;;;;;;4.78;3.72;;;;;;;6.58;100.00;102926.66;5036211;28;20045;-43
2023/01/24 01:16:39;;;;;;;4.97;3.97;;;;;;;6.61;100.00;102926.13;5044740;28;20053;-43
2023/01/24 01:19:06;;;;;;;5.97;3.83;;;;;;;6.61;100.00;102920.63;5046560;28;20048;-43
2023/01/24 01:21:33;;;;;;;6.07;4.07;;;;;;;6.61;100.00;102919.78;5046847;28;20041;-43
2023/01/24 01:24:00;;;;;;;5.10;4.13;;;;;;;6.61;100.00;102917.84;5046662;28;20044;-47
2023/01/24 01:26:26;;;;;;;8.70;6.07;;;;;;;6.61;100.00;102917.84;5046680;28;20060;-43
2023/01/24 01:28:53;;;;;;;9.40;4.15;;;;;;;6.62;100.00;102911.25;5046948;28;20049;-43
2023/01/24 01:31:20;;;;;;;11.55;6.30;;;;;;;6.66;100.00;102912.38;5047534;28;20053;-44
2023/01/24 01:33:47;;;;;;;8.32;4.80;;;;;;;6.69;100.00;102908.28;5046490;28;20037;-44
2023/01/24 01:36:13;;;;;;;6.75;4.38;;;;;;;6.69;100.00;102913.78;5047139;28;20037;-44
2023/01/24 01:38:40;;;;;;;6.43;4.63;;;;;;;6.69;100.00;102905.50;5057613;28;20123;-43
2023/01/24 01:41:07;;;;;;;7.38;4.53;;;;;;;6.64;100.00;102909.06;5047331;28;20453;-46
2023/01/24 01:43:33;;;;;;;7.55;5.15;;;;;;;6.60;100.00;102910.69;5046645;28;20441;-43
2023/01/24 01:46:23;;;;;;;8.38;5.07;;;;;;;6.58;100.00;102899.13;5046750;28;20045;-43
2023/01/24 01:48:53;;;;;;;7.57;4.55;;;;;;;6.57;100.00;102900.19;5046729;28;20060;-44
2023/01/24 01:51:29;;;;;;;6.97;5.22;;;;;;;6.54;100.00;102899.94;5028966;28;20041;-44
2023/01/24 01:54:07;;;;;;;8.73;5.28;;;;;;;6.52;100.00;102902.94;5046508;28;20537;-45
2023/01/24 01:56:40;;;;;;;10.85;6.75;;;;;;;6.48;100.00;102893.56;5028217;28;20056;-45
2023/01/24 01:59:11;;;;;;;14.25;7.45;;;;;;;6.48;100.00;102907.31;5029034;28;20045;-43
2023/01/24 02:01:38;;;;;;;10.10;6.57;;;;;;;6.44;100.00;102906.19;5028625;28;20064;-44
2023/01/24 02:04:12;;;;;;;12.05;7.47;;;;;;;6.40;100.00;102906.97;5046465;28;20053;-44
2023/01/24 02:06:47;;;;;;;13.02;7.97;;;;;;;6.36;100.00;102914.09;5028893;28;20514;-43
2023/01/24 02:09:19;;;;;;;9.82;6.45;;;;;;;6.35;100.00;102909.69;5044274;28;20040;-44
2023/01/24 02:11:46;;;;;;;10.60;7.25;;;;;;;6.31;100.00;102916.81;5049948;28;20441;-45
2023/01/24 02:17:02;;;;;;;8.10;5.72;;;;;;;6.28;100.00;102925.56;5049872;28;20053;-44
2023/01/24 02:19:31;;;;;;;9.02;6.47;;;;;;;6.22;100.00;102922.00;5032631;28;20407;-43
2023/01/24 02:22:10;;;;;;;10.18;6.20;;;;;;;6.20;100.00;102921.41;5031882;28;20051;-45
2023/01/24 02:24:43;;;;;;;8.25;5.47;;;;;;;6.18;100.00;102922.75;5050324;28;20084;-47
2023/01/24 02:27:10;;;;;;;5.30;4.40;;;;;;;6.13;100.00;102921.63;5049811;28;20046;-44
2023/01/24 02:29:36;;;;;;;6.78;4.80;;;;;;;6.14;100.00;102931.53;5049549;28;20522;-43
2023/01/24 02:32:07;;;;;;;7.13;4.38;;;;;;;6.13;100.00;102924.38;5049202;28;20049;-48
2023/01/24 02:34:33;;;;;;;7.10;4.65;;;;;;;6.13;100.00;102940.06;5049834;28;20487;-45
2023/01/24 02:37:07;;;;;;;6.70;4.32;;;;;;;6.13;100.00;102934.56;5053117;28;20047;-43
2023/01/24 02:39:59;;;;;;;4.78;3.67;;;;;;;6.11;100.00;102934.81;5055906;28;20060;-45
2023/01/24 02:42:34;;;;;;;4.15;3.30;;;;;;;6.06;100.00;102939.44;5049752;28;20049;-43
2023/01/24 02:45:08;;;;;;;5.63;4.15;;;;;;;5.98;100.00;102937.97;5049234;28;20052;-50
2023/01/24 02:47:45;;;;;;;4.50;3.40;;;;;;;5.97;100.00;102941.00;5050023;28;20068;-44
2023/01/24 02:50:11;;;;;;;4.18;3.05;;;;;;;5.99;100.00;102944.31;5049986;28;20402;-43
2023/01/24 02:55:24;;;;;;;4.82;3.00;;;;;;;6.03;100.00;102951.81;5049401;28;20064;-43
2023/01/24 02:58:07;;;;;;;5.75;2.90;;;;;;;6.06;100.00;102959.50;5049308;28;20136;-44
2023/01/24 03:00:41;;;;;;;3.17;2.65;;;;;;;6.14;100.00;102969.22;5120681;22;20039;-45
2023/01/24 03:03:09;;;;;;;3.58;2.10;;;;;;;6.21;100.00;102963.50;5024156;28;20093;-43
2023/01/24 03:08:32;;;;;;;3.78;2.80;;;;;;;6.34;100.00;102960.28;5033219;28;20103;-47
2023/01/24 03:10:58;;;;;;;3.08;2.38;;;;;;;6.43;100.00;102965.06;5028976;28;20283;-43
2023/01/24 03:35:34;;;;;;;3.92;3.20;;;;;;;7.14;100.00;102984.78;5029009;28;20048;-43
2023/01/24 03:40:51;;;;;;;6.97;3.60;;;;;;;7.26;100.00;102977.13;5028634;28;20052;-43
2023/01/24 03:43:17;;;;;;;5.30;4.03;;;;;;;7.29;100.00;102971.06;5028462;28;20093;-45
2023/01/24 03:45:44;;;;;;;4.70;3.30;;;;;;;7.35;100.00;102981.03;5028735;28;20626;-46
2023/01/24 03:48:14;;;;;;;5.07;3.53;;;;;;;7.40;100.00;102983.81;5028765;28;20038;-49
2023/01/24 03:53:30;;;;;;;8.20;3.65;;;;;;;7.50;100.00;102978.31;5028404;28;20041;-43
2023/01/24 03:56:00;;;;;;;5.45;4.03;;;;;;;7.54;100.00;102978.63;5029117;28;20045;-43
2023/01/24 03:58:29;;;;;;;5.38;3.70;;;;;;;7.57;100.00;102970.63;5028926;28;20099;-43
2023/01/24 04:00:56;;;;;;;6.28;3.53;;;;;;;7.60;100.00;102978.34;5020002;28;20052;-45
2023/01/24 04:03:23;;;;;;;5.32;3.55;;;;;;;7.62;100.00;102981.69;5028406;28;20045;-43
2023/01/24 04:05:50;;;;;;;5.50;3.88;;;;;;;7.63;100.00;102991.59;5028377;28;20045;-43
2023/01/24 04:08:18;;;;;;;7.22;3.15;;;;;;;7.64;100.00;102986.91;5032291;28;20064;-45
2023/01/24 04:10:45;;;;;;;5.13;3.45;;;;;;;7.66;100.00;102988.31;5028252;28;20064;-44
2023/01/24 04:13:12;;;;;;;8.25;3.83;;;;;;;7.68;100.00;102985.25;5028659;28;20136;-43
2023/01/24 04:15:39;;;;;;;4.28;3.13;;;;;;;7.67;100.00;102983.63;5028538;28;20065;-43
2023/01/24 04:18:06;;;;;;;4.68;2.92;;;;;;;7.64;100.00;102987.75;5028605;28;20073;-46
2023/01/24 04:20:36;;;;;;;3.95;2.97;;;;;;;7.62;100.00;102992.72;5028639;28;20046;-43
2023/01/24 04:23:04;;;;;;;5.13;2.33;;;;;;;7.63;100.00;102997.09;5028363;28;20057;-45
2023/01/24 04:25:31;;;;;;;3.45;2.15;;;;;;;7.63;100.00;103005.38;5028286;28;20068;-44
2023/01/24 04:27:59;;;;;;;2.28;1.92;;;;;;;7.66;100.00;103006.75;5010769;28;20136;-43
2023/01/24 04:30:26;;;;;;;2.30;1.73;;;;;;;7.67;100.00;103011.19;5028347;28;20487;-43
2023/01/24 04:32:53;;;;;;;2.38;2.17;;;;;;;7.70;100.00;103010.66;5027186;28;20053;-44
2023/01/24 04:35:26;;;;;;;3.75;1.70;;;;;;;7.71;100.00;103010.38;5027704;28;20487;-43
2023/01/24 04:37:56;;;;;;;1.88;1.67;;;;;;;7.71;100.00;103007.63;5038742;28;20067;-43
2023/01/24 04:40:23;;;;;;;1.80;1.65;;;;;;;7.72;100.00;103013.97;5014943;28;20042;-45
2023/01/24 04:42:49;;;;;;;3.03;2.30;;;;;;;7.72;100.00;103002.94;5028058;28;20376;-44
2023/01/24 04:45:16;;;;;;;1.70;1.42;;;;;;;7.71;100.00;103001.25;5028623;28;20072;-48
2023/01/24 04:47:43;;;;;;;2.60;1.60;;;;;;;7.70;100.00;103008.72;5027537;28;20073;-43
2023/01/24 04:50:10;;;;;;;2.67;1.50;;;;;;;7.70;100.00;103005.13;5027579;28;20164;-44
2023/01/24 04:52:37;;;;;;;3.72;2.08;;;;;;;7.70;100.00;103005.13;5028066;28;20392;-43
2023/01/24 04:55:04;;;;;;;4.75;1.95;;;;;;;7.70;100.00;103008.72;5027684;28;20426;-43
2023/01/24 04:57:31;;;;;;;2.13;1.50;;;;;;;7.69;100.00;103007.06;5027467;28;20505;-44
2023/01/24 04:59:58;;;;;;;2.35;1.92;;;;;;;7.68;100.00;103005.41;5025098;28;20053;-44
2023/01/24 05:02:24;;;;;;;2.38;1.65;;;;;;;7.66;100.00;103015.88;5022746;28;20152;-43
2023/01/24 05:04:51;;;;;;;2.10;1.70;;;;;;;7.65;100.00;103010.63;5027431;28;20510;-43
2023/01/24 05:07:17;;;;;;;3.17;1.63;;;;;;;7.62;100.00;103013.94;5026719;28;20046;-45
2023/01/24 05:09:44;;;;;;;3.20;1.77;;;;;;;7.60;100.00;103014.19;5022285;28;20045;-43
2023/01/24 05:12:11;;;;;;;6.80;2.20;;;;;;;7.58;100.00;103015.56;5027145;28;20495;-44
2023/01/24 05:14:38;;;;;;;3.97;2.10;;;;;;;7.56;100.00;103007.56;5009710;28;20499;-48
2023/01/24 05:17:05;;;;;;;4.13;2.05;;;;;;;7.54;100.00;103000.66;5027106;28;20053;-43
2023/01/24 05:19:32;;;;;;;2.97;1.95;;;;;;;7.52;100.00;103008.38;5027595;28;20076;-43
2023/01/24 05:21:58;;;;;;;2.22;1.83;;;;;;;7.48;100.00;102997.06;5026569;28;20103;-43
2023/01/24 05:24:25;;;;;;;2.25;1.70;;;;;;;7.46;100.00;103001.19;5027211;28;20410;-44
2023/01/24 05:26:52;;;;;;;2.47;2.20;;;;;;;7.42;100.00;103003.66;5026897;28;20418;-43
2023/01/24 05:29:18;;;;;;;4.25;2.17;;;;;;;7.39;100.00;102995.91;5027111;28;20510;-43
2023/01/24 05:31:45;;;;;;;2.13;1.88;;;;;;;7.35;100.00;102997.56;5026735;28;20069;-43
2023/01/24 05:34:12;;;;;;;2.40;2.20;;;;;;;7.31;100.00;103008.28;5027502;28;20081;-45
2023/01/24 05:36:38;;;;;;;3.00;2.30;;;;;;;7.29;100.00;102993.13;5027804;28;20045;-43
2023/01/24 05:39:05;;;;;;;7.72;3.35;;;;;;;7.24;100.00;102993.94;5037471;28;20045;-43
2023/01/24 05:41:32;;;;;;;4.00;2.28;;;;;;;7.21;100.00;102991.72;5027039;28;20534;-50
2023/01/24 05:43:58;;;;;;;3.85;2.83;;;;;;;7.17;100.00;102990.59;5028220;28;20037;-46
2023/01/24 05:46:25;;;;;;;4.03;2.38;;;;;;;7.14;100.00;102985.63;5030773;28;20502;-44
2023/01/24 05:48:52;;;;;;;5.13;2.95;;;;;;;7.11;100.00;102988.91;5030867;28;20041;-43
2023/01/24 05:51:19;;;;;;;5.03;2.83;;;;;;;7.06;100.00;102982.53;5030314;28;20049;-43
2023/01/24 05:53:46;;;;;;;9.68;4.68;;;;;;;7.03;100.00;102988.56;5031398;28;20498;-43
2023/01/24 05:56:16;;;;;;;6.30;3.03;;;;;;;6.99;100.00;102987.47;5030719;28;20136;-43
2023/01/24 05:58:44;;;;;;;7.20;3.25;;;;;;;6.95;100.00;102983.56;5030877;28;20045;-43
2023/01/24 06:01:17;;;;;;;3.58;3.13;;;;;;;6.92;100.00;102984.09;5021469;28;20125;-43
2023/01/24 06:03:50;;;;;;;5.45;3.58;;;;;;;6.89;100.00;102982.69;5030687;28;20529;-48
2023/01/24 06:06:19;;;;;;;5.90;4.38;;;;;;;6.87;100.00;102989.56;5030576;28;20037;-43
2023/01/24 06:08:46;;;;;;;4.68;3.40;;;;;;;6.85;100.00;102980.75;5034772;28;20045;-43
2023/01/24 06:11:22;;;;;;;4.32;3.15;;;;;;;6.83;100.00;102988.47;5030822;28;20136;-43
2023/01/24 06:13:54;;;;;;;4.93;3.20;;;;;;;6.80;100.00;102977.97;5030154;28;20049;-43
2023/01/24 06:16:23;;;;;;;5.30;3.33;;;;;;;6.77;100.00;102979.34;5030468;28;20045;-43
2023/01/24 06:18:51;;;;;;;5.30;3.88;;;;;;;6.75;100.00;102993.34;5030279;28;20068;-43
2023/01/24 06:21:39;;;;;;;6.95;4.15;;;;;;;6.72;100.00;102991.13;5030027;28;20052;-42
2023/01/24 06:24:24;;;;;;;7.43;3.90;;;;;;;6.69;100.00;102980.66;5029952;28;20037;-43
2023/01/24 06:26:51;;;;;;;4.45;3.63;;;;;;;6.67;100.00;102993.84;5029913;28;20053;-43
2023/01/24 06:29:20;;;;;;;5.20;3.70;;;;;;;6.65;100.00;103004.28;5030389;28;20049;-44
2023/01/24 06:31:59;;;;;;;7.10;4.20;;;;;;;6.63;100.00;102997.41;5030030;28;20140;-43
2023/01/24 06:34:50;;;;;;;7.78;4.95;;;;;;;6.60;100.00;102995.16;5029743;28;20488;-45
2023/01/24 06:37:41;;;;;;;8.95;4.93;;;;;;;6.57;100.00;102999.28;5035622;28;20050;-43
2023/01/24 06:40:10;;;;;;;6.50;4.60;;;;;;;6.56;100.00;103000.38;5033311;28;20034;-42
2023/01/24 06:42:37;;;;;;;5.65;4.78;;;;;;;6.56;100.00;103011.41;5025347;28;20130;-45
2023/01/24 06:45:06;;;;;;;8.65;4.88;;;;;;;6.54;100.00;103013.56;5023991;28;20521;-43
2023/01/24 06:47:33;;;;;;;7.45;5.10;;;;;;;6.54;100.00;103016.31;5031014;28;20053;-43
2023/01/24 06:50:00;;;;;;;6.63;5.03;;;;;;;6.54;100.00;103012.75;5037504;28;20041;-43
2023/01/24 06:52:27;;;;;;;7.18;5.07;;;;;;;6.53;100.00;103016.59;5032548;28;20045;-43
2023/01/24 06:54:55;;;;;;;7.25;4.93;;;;;;;6.49;100.00;103016.28;5030831;28;20107;-42
2023/01/24 06:57:22;;;;;;;6.72;5.10;;;;;;;6.48;100.00;103014.63;5030090;28;20120;-42
2023/01/24 06:59:48;;;;;;;8.30;5.22;;;;;;;6.47;100.00;103009.38;5029718;28;20060;-43
2023/01/24 07:02:15;;;;;;;8.93;5.10;;;;;;;6.46;100.00;103013.25;5030124;28;20054;-43
2023/01/24 07:04:42;;;;;;;13.77;6.18;;;;;;;6.44;100.00;103013.47;5031413;28;20144;-43
2023/01/24 07:07:09;;;;;;;10.23;6.00;;;;;;;6.43;100.00;103011.00;5016477;28;20041;-42
2023/01/24 07:09:35;;;;;;;8.63;6.18;;;;;;;6.41;100.00;103011.25;5020049;28;20051;-42
2023/01/24 07:12:02;;;;;;;8.43;6.22;;;;;;;6.40;100.00;103009.59;5030563;28;20045;-42
2023/01/24 07:14:29;;;;;;;9.95;6.03;;;;;;;6.40;100.00;103008.78;5029870;28;20497;-43
2023/01/24 07:16:56;;;;;;;8.70;6.03;;;;;;;6.39;100.00;103010.69;5030336;28;20596;-42
2023/01/24 07:19:24;;;;;;;9.68;6.72;;;;;;;6.38;100.00;103009.03;5031185;28;20046;-43
2023/01/24 07:21:53;;;;;;;10.30;6.18;;;;;;;6.38;100.00;103013.72;4996478;28;20133;-43
2023/01/24 07:24:24;;;;;;;10.02;6.30;;;;;;;6.35;100.00;103015.06;5024627;28;20087;-42
2023/01/24 07:26:51;;;;;;;10.07;5.90;;;;;;;6.36;100.00;103013.97;5031281;28;20049;-43
2023/01/24 07:29:19;;;;;;;9.93;6.78;;;;;;;6.34;100.00;103018.91;5030495;28;20076;-42
2023/01/24 07:31:48;;;;;;;7.35;5.95;;;;;;;6.33;100.00;103017.22;5030486;28;20052;-43
2023/01/24 07:34:16;;;;;;;10.73;6.85;;;;;;;6.32;100.00;103015.59;5030632;28;20064;-48
2023/01/24 07:36:47;;;;;;;10.93;6.35;;;;;;;6.30;100.00;103006.75;5032199;28;20044;-42
2023/01/24 07:39:14;;;;;;;12.50;6.78;;;;;;;6.29;100.00;103021.63;5027150;28;20061;-42
2023/01/24 07:41:45;;;;;;;8.98;6.03;;;;;;;6.29;100.00;103020.78;5029852;28;20476;-43
2023/01/24 07:44:13;;;;;;;11.50;6.80;;;;;;;6.29;100.00;103021.63;5029736;28;20076;-43
2023/01/24 07:46:40;;;;;;;11.60;7.45;;;;;;;6.27;100.00;103023.81;5029718;28;20053;-42
2023/01/24 07:49:06;;;;;;;11.75;7.18;;;;;;;6.28;100.00;103025.44;5012558;28;20128;-42
2023/01/24 07:51:33;;;;;;;15.40;7.28;;;;;;;6.28;100.00;103022.69;5028799;28;20687;-42
2023/01/24 07:54:00;;;;;;;11.32;6.97;;;;;;;6.27;100.00;103023.81;5028075;28;20462;-42
2023/01/24 07:56:27;;;;;;;10.10;7.93;;;;;;;6.27;100.00;103018.28;5027226;28;20053;-45
2023/01/24 07:58:55;;;;;;;10.85;6.80;;;;;;;6.26;100.00;103027.63;5028874;28;20114;-43
2023/01/24 08:01:23;;;;;;;12.10;6.72;;;;;;;6.26;100.00;103021.28;5020083;28;20062;-43
2023/01/24 08:03:53;;;;;;;9.80;6.78;;;;;;;6.26;100.00;103021.28;5028524;28;20459;-48
2023/01/24 08:06:20;;;;;;;12.02;6.80;;;;;;;6.25;100.00;103025.16;5028509;28;20052;-42
2023/01/24 08:08:46;;;;;;;11.25;6.53;;;;;;;6.22;100.00;103032.00;5031747;28;20064;-44
2023/01/24 08:11:15;;;;;;;13.95;7.63;;;;;;;6.22;100.00;103029.25;5029001;28;20111;-46
2023/01/24 08:13:43;;;;;;;13.38;7.00;;;;;;;6.22;100.00;103026.50;5028058;28;20557;-42
2023/01/24 08:16:10;;;;;;;13.10;7.15;;;;;;;6.24;100.00;103034.47;5028431;28;20391;-42
2023/01/24 08:18:37;;;;;;;12.00;6.63;;;;;;;6.23;100.00;103044.66;5025460;28;20053;-42
2023/01/24 08:21:05;;;;;;;13.18;6.22;;;;;;;6.22;100.00;103043.00;5010493;28;20087;-42
2023/01/24 08:23:32;;;;;;;13.38;7.25;;;;;;;6.24;100.00;103043.56;5027698;28;20395;-45
2023/01/24 08:26:05;;;;;;;13.98;7.72;;;;;;;6.25;100.00;103044.41;5024416;28;20037;-48
2023/01/24 08:28:33;;;;;;;12.55;7.70;;;;;;;6.24;100.00;103048.22;5025943;28;20052;-43
2023/01/24 08:31:01;;;;;;;14.05;7.35;;;;;;;6.23;100.00;103041.91;5027505;28;20053;-43
2023/01/24 08:33:28;;;;;;;11.50;7.35;;;;;;;6.23;100.00;103050.16;5029460;28;20127;-43
2023/01/24 08:35:54;;;;;;;13.50;7.15;;;;;;;6.22;100.00;103043.00;5028533;28;20050;-43
2023/01/24 08:38:21;;;;;;;12.90;6.97;;;;;;;6.22;100.00;103043.00;5035011;28;20124;-42
2023/01/24 08:40:48;;;;;;;11.15;7.03;;;;;;;6.21;100.00;103041.34;5029305;28;20053;-43
2023/01/24 08:43:16;;;;;;;11.75;6.75;;;;;;;6.21;100.00;103035.84;5029276;28;20073;-42
2023/01/24 08:45:43;;;;;;;10.82;8.20;;;;;;;6.22;100.00;103043.00;5029208;28;20136;-44
2023/01/24 08:48:10;;;;;;;12.68;7.82;;;;;;;6.20;100.00;103042.41;5028492;28;20053;-42
2023/01/24 08:50:37;;;;;;;14.48;7.90;;;;;;;6.22;100.00;103048.50;5028692;28;20060;-43
2023/01/24 08:53:03;;;;;;;11.55;7.53;;;;;;;6.23;100.00;103055.66;5028754;28;20048;-42
2023/01/24 08:55:30;;;;;;;12.68;7.43;;;;;;;6.23;100.00;103050.16;5029018;28;20080;-43
2023/01/24 08:58:03;;;;;;;17.92;8.00;;;;;;;6.26;100.00;103048.81;5028556;28;20091;-43
2023/01/24 09:00:31;;;;;;;12.82;7.55;;;;;;;6.29;100.00;103048.28;5027066;28;20049;-43
2023/01/24 09:03:01;;;;;;;14.57;7.78;;;;;;;6.32;100.00;103037.59;5028324;28;20487;-42
2023/01/24 09:05:31;;;;;;;14.02;6.97;;;;;;;6.38;100.00;103053.03;5010956;28;20145;-47
2023/01/24 09:07:58;;;;;;;13.63;7.90;;;;;;;6.42;100.00;103043.19;5031768;28;20076;-43
2023/01/24 09:10:25;;;;;;;11.98;7.35;;;;;;;6.47;100.00;103045.97;5028439;28;20052;-43
2023/01/24 09:12:52;;;;;;;12.02;7.47;;;;;;;6.55;100.00;103051.00;5028198;28;20557;-43
2023/01/24 09:15:19;;;;;;;12.13;6.47;;;;;;;6.64;100.00;103051.38;5028744;28;20391;-43
2023/01/24 09:17:46;;;;;;;11.13;6.75;;;;;;;6.74;100.00;103051.44;5029133;28;20677;-44
2023/01/24 09:20:13;;;;;;;11.00;6.15;;;;;;;6.84;100.00;103040.50;5028482;28;20068;-45
2023/01/24 09:22:40;;;;;;;13.95;6.57;;;;;;;6.95;100.00;103041.41;5028280;28;20430;-43
2023/01/24 09:25:07;;;;;;;9.90;5.45;;;;;;;7.05;100.00;103046.97;5028527;28;20045;-43
2023/01/24 09:27:35;;;;;;;12.27;5.47;;;;;;;7.14;100.00;103050.91;5028516;28;20125;-47
2023/01/24 09:30:04;;;;;;;9.20;5.70;;;;;;;7.21;100.00;103037.69;5027962;28;20563;-44
2023/01/24 09:32:31;;;;;;;10.35;5.78;;;;;;;7.30;100.00;103049.91;5028614;28;20049;-45
2023/01/24 09:34:58;;;;;;;9.20;5.55;;;;;;;7.35;100.00;103041.66;5028383;28;20562;-43
2023/01/24 09:37:26;;;;;;;9.60;5.63;;;;;;;7.44;100.00;103053.00;5034873;28;20043;-42
2023/01/24 09:39:55;;;;;;;8.85;5.55;;;;;;;7.47;100.00;103053.28;5030996;28;20402;-42
2023/01/24 09:42:40;;;;;;;10.48;6.30;;;;;;;7.49;100.00;103051.09;5028400;28;20049;-43
2023/01/24 09:45:26;;;;;;;8.88;5.28;;;;;;;7.50;100.00;103054.66;5028133;28;20633;-43
2023/01/24 09:47:57;;;;;;;8.32;5.50;;;;;;;7.49;100.00;103056.63;5027797;28;20061;-40
2023/01/24 09:50:52;;;;;;;10.38;6.40;;;;;;;7.47;100.00;103049.69;5028017;28;20053;-40
2023/01/24 09:53:27;;;;;;;11.43;6.75;;;;;;;7.45;100.00;103049.97;5040569;28;20044;-41
2023/01/24 09:55:53;;;;;;;16.60;7.43;;;;;;;7.42;100.00;103058.75;5028006;28;20060;-40
2023/01/24 09:58:34;;;;;;;14.68;7.97;;;;;;;7.39;100.00;103059.28;5010940;28;20049;-40
2023/01/24 10:01:06;;;;;;;13.23;8.63;;;;;;;7.35;100.00;103052.66;5019976;28;20149;-44
2023/01/24 10:03:33;;;;;;;;;;;;;;;7.32;100.00;103065.06;5028411;28;20041;-40
2023/01/24 10:06:25;;;;;;;11.52;7.18;;;;;;;7.30;100.00;103059.00;5027778;28;19960;-42
2023/01/24 10:09:13;;;;;;;14.68;9.07;;;;;;;7.32;100.00;103058.72;5032305;28;20045;-44
2023/01/24 10:11:51;;;;;;;11.35;7.30;;;;;;;7.32;100.00;103058.72;5028101;28;20059;-40
2023/01/24 10:14:37;;;;;;;17.60;8.60;;;;;;;7.32;100.00;103058.72;5027535;28;20128;-41
2023/01/24 10:17:31;;;;;;;11.90;7.70;;;;;;;7.32;100.00;103064.22;5027339;28;20038;-41
2023/01/24 10:20:39;;;;;;;14.40;7.25;;;;;;;7.32;100.00;103059.53;5028156;28;20064;-41
2023/01/24 10:23:20;;;;;;;14.38;7.35;;;;;;;7.35;100.00;103058.19;5019490;28;20045;-41
2023/01/24 10:25:55;;;;;;;11.73;7.97;;;;;;;7.38;100.00;103067.84;5028611;28;20054;-40
2023/01/24 10:28:24;;;;;;;14.57;9.35;;;;;;;7.40;100.00;103055.44;5027768;28;20141;-42
2023/01/24 10:31:04;;;;;;;17.70;9.32;;;;;;;7.42;100.00;103057.91;5028862;28;20067;-42
2023/01/24 10:33:37;;;;;;;13.65;7.88;;;;;;;7.43;100.00;103054.91;5031751;28;20053;-40
2023/01/24 10:36:03;;;;;;;12.18;8.30;;;;;;;7.45;100.00;103063.75;5031843;28;20135;-42
2023/01/24 10:38:30;;;;;;;12.35;7.88;;;;;;;7.47;100.00;103057.94;5042576;28;20099;-40
2023/01/24 10:41:20;;;;;;;14.88;9.20;;;;;;;7.49;100.00;103067.63;5031467;28;20060;-40
2023/01/24 10:43:58;;;;;;;14.73;8.95;;;;;;;7.52;100.00;103072.59;5022495;28;20042;-40
2023/01/24 10:47:11;;;;;;;12.80;8.55;;;;;;;7.54;100.00;103073.16;5027361;28;20056;-43
2023/01/24 10:49:41;;;;;;;20.45;10.25;;;;;;;7.57;100.00;103083.63;5002896;28;20055;-41
2023/01/24 10:52:13;;;;;;;12.43;7.95;;;;;;;7.58;100.00;103071.53;5031033;28;20475;-40
2023/01/24 10:54:46;;;;;;;12.13;8.23;;;;;;;7.61;100.00;103076.50;5030703;28;20049;-40
2023/01/24 10:57:41;;;;;;;12.45;8.20;;;;;;;7.66;100.00;103073.75;5031343;28;20049;-41
2023/01/24 11:00:22;;;;;;;9.95;7.47;;;;;;;7.69;100.00;103081.50;5026288;28;20077;-41
2023/01/24 11:02:52;;;;;;;15.93;8.75;;;;;;;7.71;100.00;103079.28;5030720;28;20057;-45
2023/01/24 11:05:21;;;;;;;11.48;6.85;;;;;;;7.76;100.00;103076.56;5030714;28;20549;-41
2023/01/24 11:07:58;;;;;;;10.95;7.72;;;;;;;7.80;100.00;103080.47;5034240;28;20058;-41
2023/01/24 11:10:34;;;;;;;9.00;7.10;;;;;;;7.85;100.00;103069.44;5031210;28;20053;-40
2023/01/24 11:13:02;;;;;;;8.30;5.38;;;;;;;7.89;100.00;103067.78;5030572;28;20510;-42
2023/01/24 11:15:32;;;;;;;6.50;4.03;;;;;;;7.95;100.00;103066.72;5030234;28;20448;-41
2023/01/24 11:18:06;;;;;;;4.75;2.80;;;;;;;8.01;100.00;103061.19;5031341;28;20060;-41
2023/01/24 11:20:35;;;;;;;6.45;2.90;;;;;;;8.09;100.00;103058.75;5030402;28;20503;-40
2023/01/24 11:23:21;;;;;;;5.30;2.70;;;;;;;8.22;100.00;103051.88;5030385;28;20510;-40
2023/01/24 11:25:57;;;;;;;4.93;1.40;;;;;;;8.37;100.00;103049.16;5030574;28;20042;-41
2023/01/24 11:28:36;;;;;;;1.38;0.77;;;;;;;8.47;100.00;103046.44;5030124;28;20053;-41
2023/01/24 11:31:22;;;;;;;0.85;0.65;;;;;;;8.53;100.00;103037.03;5029809;28;20593;-41
2023/01/24 11:33:57;;;;;;;2.65;0.93;;;;;;;8.54;100.00;103041.47;5030713;28;20053;-40
2023/01/24 11:36:47;;;;;;;1.05;0.98;;;;;;;8.50;100.00;103038.41;5030180;28;20132;-41
2023/01/24 11:39:50;;;;;;;1.85;0.70;;;;;;;8.44;100.00;103035.94;5020763;28;20046;-41
2023/01/24 11:42:23;;;;;;;0.95;0.55;;;;;;;8.43;100.00;103028.75;5026724;28;20116;-41
2023/01/24 11:45:27;;;;;;;4.13;0.82;;;;;;;8.47;100.00;103021.59;5030017;28;20049;-41
2023/01/24 11:48:20;;;;;;;3.47;1.20;;;;;;;8.51;100.00;103028.19;5029774;28;20053;-42
2023/01/24 11:50:53;;;;;;;2.75;1.00;;;;;;;8.55;100.00;103015.50;5030775;28;20041;-42
2023/01/24 11:54:05;;;;;;;2.50;1.23;;;;;;;8.60;100.00;103009.16;5030120;28;20047;-42
2023/01/24 11:57:01;;;;;;;0.85;0.85;;;;;;;8.64;100.00;103011.06;5029519;28;20093;-44
2023/01/24 11:59:45;;;;;;;1.65;0.80;;;;;;;8.72;100.00;103016.03;5029336;28;20052;-42
2023/01/24 12:02:37;;;;;;;1.05;0.80;;;;;;;8.78;100.00;103001.13;5029403;28;20148;-42
2023/01/24 12:05:28;;;;;;;5.68;2.15;;;;;;;8.84;100.00;103008.28;5029543;28;20045;-42
2023/01/24 12:08:30;;;;;;;1.95;0.80;;;;;;;8.90;100.00;103003.56;5031421;28;20124;-42
2023/01/24 12:11:04;;;;;;;2.58;1.30;;;;;;;8.93;100.00;103006.63;4971782;28;20054;-41
2023/01/24 12:14:21;;;;;;;1.45;1.17;;;;;;;8.99;100.00;103005.50;5025131;28;20060;-41
2023/01/24 12:17:26;;;;;;;2.50;0.98;;;;;;;9.06;100.00;103008.81;5029278;28;20085;-42